Time,TemperatureF,DewpointF,PressureIn,WindDirection,WindDirectionDegrees,WindSpeedMPH,WindSpeedGustMPH,Humidity,HourlyPrecipIn,Conditions,Clouds,dailyrainin,SoftwareType,DateUTC
2013-06-28 00:02:00,69.3,68.0,29.59,SSE,163,0.0,0.0,96,0.00,,,0.02,meteohub,2013-06-28 04:02:00,
2013-06-28 00:07:00,69.3,68.0,29.59,SW,225,1.0,1.0,96,0.00,,,0.00,meteohub,2013-06-28 04:07:00,
2013-06-28 00:12:00,69.1,67.8,29.59,SSW,209,1.0,1.0,96,0.00,,,0.00,meteohub,2013-06-28 04:12:00,
2013-06-28 00:17:00,69.1,67.8,29.59,SSE,160,0.0,2.0,96,0.00,,,0.00,meteohub,2013-06-28 04:17:00,
2013-06-28 00:22:00,69.1,67.8,29.59,SSE,160,0.0,2.0,96,0.00,,,0.00,meteohub,2013-06-28 04:22:00,
2013-06-28 00:27:00,69.3,68.0,29.59,SSE,160,0.0,2.0,96,0.00,,,0.00,meteohub,2013-06-28 04:27:00,
2013-06-28 00:32:00,69.3,68.0,29.59,SSE,160,0.0,1.0,96,0.00,,,0.00,meteohub,2013-06-28 04:32:00,
2013-06-28 00:37:00,69.1,67.8,29.59,SSE,161,0.0,0.0,96,0.00,,,0.00,meteohub,2013-06-28 04:37:00,
2013-06-28 00:42:00,69.1,67.8,29.59,South,188,0.0,0.0,96,0.00,,,0.00,meteohub,2013-06-28 04:42:00,
2013-06-28 00:47:00,69.1,67.8,29.58,South,191,1.0,1.0,96,0.00,,,0.00,meteohub,2013-06-28 04:47:00,
2013-06-28 00:52:00,69.1,67.8,29.58,SSW,194,0.0,2.0,96,0.00,,,0.00,meteohub,2013-06-28 04:52:00,
2013-06-28 00:57:00,69.1,67.8,29.59,SSE,163,1.0,2.0,96,0.00,,,0.00,meteohub,2013-06-28 04:57:00,
2013-06-28 01:02:00,69.1,68.2,29.58,SSE,150,0.0,2.0,97,0.00,,,0.00,meteohub,2013-06-28 05:02:00,
2013-06-28 01:07:00,69.1,68.2,29.58,SSE,153,0.0,2.0,97,0.00,,,0.00,meteohub,2013-06-28 05:07:00,
2013-06-28 01:12:00,69.3,68.4,29.58,SSE,148,0.0,2.0,97,0.00,,,0.00,meteohub,2013-06-28 05:12:00,
2013-06-28 01:17:00,69.1,67.8,29.58,SSE,160,0.0,2.0,96,0.00,,,0.00,meteohub,2013-06-28 05:17:00,
2013-06-28 01:22:00,68.7,67.5,29.58,SSE,147,0.0,1.0,96,0.00,,,0.00,meteohub,2013-06-28 05:22:00,
2013-06-28 01:27:00,68.5,67.3,29.58,SE,138,0.0,2.0,96,0.00,,,0.00,meteohub,2013-06-28 05:27:00,
2013-06-28 01:32:00,68.5,67.6,29.58,SE,141,0.0,2.0,97,0.00,,,0.00,meteohub,2013-06-28 05:32:00,
2013-06-28 01:37:00,68.5,67.6,29.59,SSE,149,0.0,2.0,97,0.00,,,0.00,meteohub,2013-06-28 05:37:00,
2013-06-28 01:42:00,68.5,67.6,29.59,SE,141,0.0,1.0,97,0.00,,,0.00,meteohub,2013-06-28 05:42:00,
2013-06-28 01:47:00,68.5,67.6,29.59,SE,141,1.0,2.0,97,0.00,,,0.00,meteohub,2013-06-28 05:47:00,
2013-06-28 01:52:00,68.5,67.6,29.59,SE,134,0.0,2.0,97,0.00,,,0.00,meteohub,2013-06-28 05:52:00,
2013-06-28 01:57:00,68.5,67.6,29.58,SSE,156,0.0,2.0,97,0.00,,,0.00,meteohub,2013-06-28 05:57:00,
2013-06-28 02:02:00,68.5,67.6,29.58,SSE,163,0.0,2.0,97,0.00,,,0.00,meteohub,2013-06-28 06:02:00,
2013-06-28 02:07:00,68.4,67.5,29.58,SSE,163,0.0,1.0,97,0.00,,,0.00,meteohub,2013-06-28 06:07:00,
2013-06-28 02:12:00,68.4,67.5,29.58,SSE,162,0.0,0.0,97,0.00,,,0.00,meteohub,2013-06-28 06:12:00,
2013-06-28 02:17:00,68.4,67.5,29.58,SE,129,0.0,2.0,97,0.00,,,0.00,meteohub,2013-06-28 06:17:00,
2013-06-28 02:22:00,68.2,67.3,29.58,SSE,158,0.0,2.0,97,0.00,,,0.00,meteohub,2013-06-28 06:22:00,
2013-06-28 02:27:00,68.2,67.3,29.58,SSE,158,0.0,2.0,97,0.00,,,0.00,meteohub,2013-06-28 06:27:00,
2013-06-28 02:32:00,68.2,67.3,29.57,SSE,158,0.0,2.0,97,0.00,,,0.00,meteohub,2013-06-28 06:32:00,
2013-06-28 02:37:00,68.0,67.1,29.57,SSE,166,0.0,0.0,97,0.00,,,0.00,meteohub,2013-06-28 06:37:00,
2013-06-28 02:42:00,67.8,66.9,29.57,SSE,166,1.0,1.0,97,0.00,,,0.00,meteohub,2013-06-28 06:42:00,
2013-06-28 02:47:00,67.8,66.9,29.57,SSE,166,0.0,1.0,97,0.00,,,0.00,meteohub,2013-06-28 06:47:00,
2013-06-28 02:52:00,67.8,66.9,29.57,South,169,0.0,1.0,97,0.00,,,0.00,meteohub,2013-06-28 06:52:00,
2013-06-28 02:57:00,67.8,66.9,29.57,SE,143,1.0,1.0,97,0.00,,,0.00,meteohub,2013-06-28 06:57:00,
2013-06-28 03:02:00,67.8,66.9,29.57,SSE,158,1.0,1.0,97,0.00,,,0.00,meteohub,2013-06-28 07:02:00,
2013-06-28 03:07:00,67.6,66.7,29.56,SSE,158,0.0,1.0,97,0.00,,,0.00,meteohub,2013-06-28 07:07:00,
2013-06-28 03:12:00,67.6,66.7,29.56,SSE,159,0.0,1.0,97,0.00,,,0.00,meteohub,2013-06-28 07:12:00,
2013-06-28 03:17:00,67.6,66.7,29.56,SSE,153,0.0,1.0,97,0.00,,,0.00,meteohub,2013-06-28 07:17:00,
2013-06-28 03:22:00,67.8,67.3,29.56,SSE,150,0.0,0.0,98,0.00,,,0.00,meteohub,2013-06-28 07:22:00,
2013-06-28 03:32:00,68.5,68.0,29.56,SE,142,0.0,2.0,98,0.00,,,0.00,meteohub,2013-06-28 07:32:00,
2013-06-28 03:37:00,68.7,68.2,29.56,SSE,148,0.0,2.0,98,0.00,,,0.00,meteohub,2013-06-28 07:37:00,
2013-06-28 03:42:00,68.9,68.4,29.56,SSW,203,0.0,2.0,98,0.00,,,0.00,meteohub,2013-06-28 07:42:00,
2013-06-28 03:47:00,69.3,68.7,29.56,WSW,248,1.0,2.0,98,0.00,,,0.00,meteohub,2013-06-28 07:47:00,
2013-06-28 03:52:00,70.2,69.6,29.55,West,260,2.0,4.0,98,0.00,,,0.00,meteohub,2013-06-28 07:52:00,
2013-06-28 03:57:00,71.1,70.5,29.55,NW,304,0.0,7.0,98,0.00,,,0.00,meteohub,2013-06-28 07:57:00,
2013-06-28 04:02:00,71.2,69.4,29.55,WSW,256,3.0,7.0,94,0.00,,,0.00,meteohub,2013-06-28 08:02:00,
2013-06-28 04:07:00,72.1,69.4,29.55,WSW,251,7.0,7.0,91,0.00,,,0.00,meteohub,2013-06-28 08:07:00,
2013-06-28 04:12:00,73.0,69.3,29.55,West,264,4.0,9.0,88,0.00,,,0.00,meteohub,2013-06-28 08:12:00,
2013-06-28 04:17:00,73.2,69.4,29.55,WSW,250,4.0,9.0,88,0.00,,,0.00,meteohub,2013-06-28 08:17:00,
2013-06-28 04:22:00,73.6,69.4,29.55,West,267,2.0,9.0,87,0.00,,,0.00,meteohub,2013-06-28 08:22:00,
2013-06-28 04:27:00,73.8,69.3,29.55,West,280,1.0,7.0,86,0.00,,,0.00,meteohub,2013-06-28 08:27:00,
2013-06-28 04:32:00,73.8,69.3,29.55,West,273,2.0,7.0,86,0.00,,,0.00,meteohub,2013-06-28 08:32:00,
2013-06-28 04:37:00,73.8,69.3,29.55,West,269,1.0,7.0,86,0.00,,,0.00,meteohub,2013-06-28 08:37:00,
2013-06-28 04:42:00,73.6,69.1,29.55,West,271,2.0,5.0,86,0.00,,,0.00,meteohub,2013-06-28 08:42:00,
2013-06-28 04:47:00,73.6,69.1,29.55,West,269,2.0,5.0,86,0.00,,,0.00,meteohub,2013-06-28 08:47:00,
2013-06-28 04:52:00,73.2,68.7,29.55,SW,228,2.0,6.0,86,0.00,,,0.00,meteohub,2013-06-28 08:52:00,
2013-06-28 04:57:00,73.0,68.5,29.55,WSW,258,2.0,6.0,86,0.00,,,0.00,meteohub,2013-06-28 08:57:00,
2013-06-28 05:02:00,73.2,68.7,29.55,WNW,290,3.0,6.0,86,0.00,,,0.00,meteohub,2013-06-28 09:02:00,
2013-06-28 05:07:00,73.2,68.4,29.55,WNW,298,3.0,6.0,85,0.00,,,0.00,meteohub,2013-06-28 09:07:00,
2013-06-28 05:12:00,73.2,68.4,29.55,West,271,5.0,6.0,85,0.00,,,0.00,meteohub,2013-06-28 09:12:00,
2013-06-28 05:17:00,73.2,68.4,29.55,West,278,4.0,7.0,85,0.00,,,0.00,meteohub,2013-06-28 09:17:00,
2013-06-28 05:22:00,73.4,68.2,29.55,WNW,287,6.0,7.0,84,0.00,,,0.00,meteohub,2013-06-28 09:22:00,
2013-06-28 05:32:00,73.0,68.0,29.55,SW,217,2.0,6.0,84,0.00,,,0.00,meteohub,2013-06-28 09:32:00,
2013-06-28 05:37:00,73.0,68.0,29.56,West,269,3.0,6.0,84,0.00,,,0.00,meteohub,2013-06-28 09:37:00,
2013-06-28 05:42:00,72.9,68.0,29.55,SW,228,2.0,7.0,85,0.00,,,0.00,meteohub,2013-06-28 09:42:00,
2013-06-28 05:47:00,72.9,67.8,29.56,West,264,2.0,8.0,84,0.00,,,0.00,meteohub,2013-06-28 09:47:00,
2013-06-28 05:52:00,72.7,67.8,29.55,West,281,2.0,8.0,85,0.00,,,0.00,meteohub,2013-06-28 09:52:00,
2013-06-28 05:57:00,72.7,67.8,29.55,WSW,257,3.0,8.0,85,0.00,,,0.00,meteohub,2013-06-28 09:57:00,
2013-06-28 06:02:00,72.7,67.6,29.55,West,281,3.0,7.0,84,0.00,,,0.00,meteohub,2013-06-28 10:02:00,
2013-06-28 06:07:00,72.7,67.8,29.56,West,280,4.0,6.0,85,0.00,,,0.00,meteohub,2013-06-28 10:07:00,
2013-06-28 06:12:00,72.5,67.8,29.56,West,273,2.0,6.0,85,0.00,,,0.00,meteohub,2013-06-28 10:12:00,
2013-06-28 06:17:00,72.3,67.6,29.56,WNW,288,3.0,6.0,85,0.00,,,0.00,meteohub,2013-06-28 10:17:00,
2013-06-28 06:22:00,72.1,67.5,29.56,West,269,2.0,6.0,85,0.00,,,0.00,meteohub,2013-06-28 10:22:00,
2013-06-28 06:27:00,72.1,67.5,29.56,WSW,240,1.0,5.0,85,0.00,,,0.00,meteohub,2013-06-28 10:27:00,
2013-06-28 06:32:00,72.0,67.3,29.56,West,281,4.0,5.0,85,0.00,,,0.00,meteohub,2013-06-28 10:32:00,
2013-06-28 06:37:00,72.1,67.5,29.56,WNW,285,2.0,5.0,85,0.00,,,0.00,meteohub,2013-06-28 10:37:00,
2013-06-28 06:42:00,72.1,67.5,29.56,West,277,3.0,5.0,85,0.00,,,0.00,meteohub,2013-06-28 10:42:00,
2013-06-28 06:47:00,72.3,67.6,29.56,WNW,291,2.0,5.0,85,0.00,,,0.00,meteohub,2013-06-28 10:47:00,
2013-06-28 06:52:00,72.5,67.8,29.56,West,281,1.0,6.0,85,0.00,,,0.00,meteohub,2013-06-28 10:52:00,
2013-06-28 06:57:00,72.7,67.6,29.56,West,273,4.0,6.0,84,0.00,,,0.00,meteohub,2013-06-28 10:57:00,
2013-06-28 07:02:00,73.0,67.6,29.56,West,280,4.0,6.0,83,0.00,,,0.00,meteohub,2013-06-28 11:02:00,
2013-06-28 07:07:00,73.2,67.5,29.56,WNW,289,4.0,11.0,82,0.00,,,0.00,meteohub,2013-06-28 11:07:00,
2013-06-28 07:12:00,73.2,67.5,29.56,West,271,6.0,11.0,82,0.00,,,0.00,meteohub,2013-06-28 11:12:00,
2013-06-28 07:17:00,73.6,67.8,29.56,NNW,332,3.0,11.0,82,0.00,,,0.00,meteohub,2013-06-28 11:17:00,
2013-06-28 07:22:00,73.6,67.8,29.56,WNW,295,4.0,9.0,82,0.00,,,0.00,meteohub,2013-06-28 11:22:00,
2013-06-28 07:27:00,73.8,68.0,29.56,WNW,298,6.0,9.0,82,0.00,,,0.00,meteohub,2013-06-28 11:27:00,
2013-06-28 07:32:00,73.8,67.6,29.56,WNW,290,4.0,8.0,81,0.00,,,0.00,meteohub,2013-06-28 11:32:00,
2013-06-28 07:37:00,73.9,67.8,29.56,NNE,20,5.0,8.0,81,0.00,,,0.00,meteohub,2013-06-28 11:37:00,
2013-06-28 07:42:00,74.1,68.0,29.56,NW,319,2.0,8.0,81,0.00,,,0.00,meteohub,2013-06-28 11:42:00,
2013-06-28 07:47:00,74.5,68.2,29.56,WNW,287,5.0,8.0,81,0.00,,,0.00,meteohub,2013-06-28 11:47:00,
2013-06-28 07:52:00,74.5,67.8,29.56,WNW,284,5.0,8.0,80,0.00,,,0.00,meteohub,2013-06-28 11:52:00,
2013-06-28 07:57:00,74.5,67.8,29.56,West,280,6.0,8.0,80,0.00,,,0.00,meteohub,2013-06-28 11:57:00,
2013-06-28 08:02:00,74.5,67.8,29.56,WNW,288,7.0,8.0,80,0.00,,,0.00,meteohub,2013-06-28 12:02:00,
2013-06-28 08:07:00,74.7,68.0,29.56,West,281,8.0,10.0,80,0.00,,,0.00,meteohub,2013-06-28 12:07:00,
2013-06-28 08:12:00,74.8,67.8,29.56,WSW,245,5.0,10.0,79,0.00,,,0.00,meteohub,2013-06-28 12:12:00,
2013-06-28 08:17:00,74.8,67.8,29.56,West,277,2.0,10.0,79,0.00,,,0.00,meteohub,2013-06-28 12:17:00,
2013-06-28 08:22:00,75.0,67.6,29.57,WNW,293,4.0,10.0,78,0.00,,,0.00,meteohub,2013-06-28 12:22:00,
2013-06-28 08:27:00,75.4,68.4,29.56,NW,319,4.0,10.0,79,0.00,,,0.00,meteohub,2013-06-28 12:27:00,
2013-06-28 08:32:00,75.4,68.0,29.56,West,276,6.0,11.0,78,0.00,,,0.00,meteohub,2013-06-28 12:32:00,
2013-06-28 08:37:00,75.6,68.5,29.57,West,273,2.0,11.0,79,0.00,,,0.00,meteohub,2013-06-28 12:37:00,
2013-06-28 08:42:00,75.9,68.2,29.56,WNW,289,2.0,11.0,77,0.00,,,0.00,meteohub,2013-06-28 12:42:00,
2013-06-28 08:47:00,75.9,67.8,29.56,WNW,291,6.0,11.0,76,0.00,,,0.00,meteohub,2013-06-28 12:47:00,
2013-06-28 08:52:00,76.1,68.0,29.56,NW,320,6.0,10.0,76,0.00,,,0.00,meteohub,2013-06-28 12:52:00,
2013-06-28 08:57:00,76.3,68.2,29.56,West,273,3.0,10.0,76,0.00,,,0.00,meteohub,2013-06-28 12:57:00,
2013-06-28 09:02:00,76.3,68.5,29.56,WSW,240,2.0,10.0,77,0.00,,,0.00,meteohub,2013-06-28 13:02:00,
2013-06-28 09:07:00,76.6,68.9,29.56,WNW,293,5.0,11.0,77,0.00,,,0.00,meteohub,2013-06-28 13:07:00,
2013-06-28 09:12:00,76.8,69.1,29.56,NW,321,2.0,11.0,77,0.00,,,0.00,meteohub,2013-06-28 13:12:00,
2013-06-28 09:17:00,77.0,69.3,29.55,WNW,302,2.0,8.0,77,0.00,,,0.00,meteohub,2013-06-28 13:17:00,
2013-06-28 09:22:00,77.0,68.0,29.56,West,262,6.0,8.0,74,0.00,,,0.00,meteohub,2013-06-28 13:22:00,
2013-06-28 09:27:00,77.2,68.7,29.55,NW,326,4.0,8.0,75,0.00,,,0.00,meteohub,2013-06-28 13:27:00,
2013-06-28 09:32:00,77.2,69.1,29.55,NW,309,3.0,12.0,76,0.00,,,0.00,meteohub,2013-06-28 13:32:00,
2013-06-28 09:37:00,77.4,69.3,29.55,NNW,337,4.0,12.0,76,0.00,,,0.00,meteohub,2013-06-28 13:37:00,
2013-06-28 09:42:00,77.7,68.7,29.55,NW,306,6.0,12.0,74,0.00,,,0.00,meteohub,2013-06-28 13:42:00,
2013-06-28 09:47:00,77.9,68.2,29.55,West,276,7.0,8.0,72,0.00,,,0.00,meteohub,2013-06-28 13:47:00,
2013-06-28 09:52:00,77.9,68.5,29.55,NW,311,5.0,11.0,73,0.00,,,0.00,meteohub,2013-06-28 13:52:00,
2013-06-28 09:57:00,78.1,68.4,29.55,NW,304,5.0,11.0,72,0.00,,,0.00,meteohub,2013-06-28 13:57:00,
2013-06-28 10:02:00,78.4,69.1,29.55,West,276,8.0,11.0,73,0.00,,,0.00,meteohub,2013-06-28 14:02:00,
2013-06-28 10:07:00,78.4,67.8,29.55,WSW,255,7.0,11.0,70,0.00,,,0.00,meteohub,2013-06-28 14:07:00,
2013-06-28 10:12:00,78.4,68.2,29.55,West,264,4.0,11.0,71,0.00,,,0.00,meteohub,2013-06-28 14:12:00,
2013-06-28 10:17:00,79.2,69.3,29.55,WNW,287,5.0,11.0,72,0.00,,,0.00,meteohub,2013-06-28 14:17:00,
2013-06-28 10:22:00,79.5,68.0,29.55,WNW,288,6.0,11.0,68,0.00,,,0.00,meteohub,2013-06-28 14:22:00,
2013-06-28 10:27:00,79.7,68.5,29.54,NNW,339,3.0,10.0,69,0.00,,,0.00,meteohub,2013-06-28 14:27:00,
2013-06-28 10:32:00,79.7,68.2,29.54,NW,315,3.0,9.0,68,0.00,,,0.00,meteohub,2013-06-28 14:32:00,
2013-06-28 10:37:00,80.1,67.3,29.54,West,273,7.0,9.0,65,0.00,,,0.00,meteohub,2013-06-28 14:37:00,
2013-06-28 10:42:00,80.4,66.7,29.54,NNW,328,5.0,12.0,63,0.00,,,0.00,meteohub,2013-06-28 14:42:00,
2013-06-28 10:47:00,80.6,68.5,29.54,NW,324,3.0,12.0,67,0.00,,,0.00,meteohub,2013-06-28 14:47:00,
2013-06-28 10:52:00,81.0,68.0,29.54,NW,311,4.0,12.0,65,0.00,,,0.00,meteohub,2013-06-28 14:52:00,
2013-06-28 10:57:00,81.3,68.4,29.54,WNW,283,7.0,11.0,65,0.00,,,0.00,meteohub,2013-06-28 14:57:00,
2013-06-28 11:02:00,81.5,68.5,29.54,North,6,7.0,11.0,65,0.00,,,0.00,meteohub,2013-06-28 15:02:00,
2013-06-28 11:07:00,81.7,69.6,29.54,SE,139,3.0,10.0,67,0.00,,,0.00,meteohub,2013-06-28 15:07:00,
2013-06-28 11:12:00,81.9,68.5,29.54,West,278,9.0,9.0,64,0.00,,,0.00,meteohub,2013-06-28 15:12:00,
2013-06-28 11:17:00,81.5,66.7,29.54,West,278,12.0,12.0,61,0.00,,,0.00,meteohub,2013-06-28 15:17:00,
2013-06-28 11:22:00,82.0,66.7,29.54,WNW,294,6.0,13.0,60,0.00,,,0.00,meteohub,2013-06-28 15:22:00,
2013-06-28 11:27:00,82.6,67.3,29.54,West,280,6.0,13.0,60,0.00,,,0.00,meteohub,2013-06-28 15:27:00,
2013-06-28 11:32:00,82.8,66.9,29.53,NNW,327,5.0,13.0,59,0.00,,,0.00,meteohub,2013-06-28 15:32:00,
2013-06-28 11:37:00,82.8,69.3,29.53,WNW,295,7.0,10.0,64,0.00,,,0.00,meteohub,2013-06-28 15:37:00,
2013-06-28 11:42:00,83.5,68.2,29.53,North,355,11.0,11.0,60,0.00,,,0.00,meteohub,2013-06-28 15:42:00,
2013-06-28 11:47:00,83.1,67.8,29.54,NW,311,5.0,12.0,60,0.00,,,0.00,meteohub,2013-06-28 15:47:00,
2013-06-28 11:52:00,83.1,67.8,29.53,NW,326,4.0,12.0,60,0.00,,,0.00,meteohub,2013-06-28 15:52:00,
2013-06-28 11:57:00,83.3,67.5,29.53,WSW,248,4.0,12.0,59,0.00,,,0.00,meteohub,2013-06-28 15:57:00,
2013-06-28 12:02:00,83.5,66.2,29.54,WNW,282,6.0,11.0,56,0.00,,,0.00,meteohub,2013-06-28 16:02:00,
2013-06-28 12:07:00,83.5,66.2,29.54,WSW,253,10.0,13.0,56,0.00,,,0.00,meteohub,2013-06-28 16:07:00,
2013-06-28 12:12:00,83.1,66.4,29.54,West,280,5.0,14.0,57,0.00,,,0.00,meteohub,2013-06-28 16:12:00,
2013-06-28 12:17:00,83.5,68.2,29.54,WNW,285,7.0,14.0,60,0.00,,,0.00,meteohub,2013-06-28 16:17:00,
2013-06-28 12:22:00,83.7,66.4,29.54,WNW,285,7.0,14.0,56,0.00,,,0.00,meteohub,2013-06-28 16:22:00,
2013-06-28 12:27:00,84.0,67.6,29.54,West,281,4.0,12.0,58,0.00,,,0.00,meteohub,2013-06-28 16:27:00,
2013-06-28 12:32:00,84.0,66.6,29.54,NW,311,5.0,11.0,56,0.00,,,0.00,meteohub,2013-06-28 16:32:00,
2013-06-28 12:37:00,84.6,64.4,29.54,WNW,283,9.0,10.0,51,0.00,,,0.00,meteohub,2013-06-28 16:37:00,
2013-06-28 12:42:00,84.4,63.7,29.54,NNW,346,5.0,15.0,50,0.00,,,0.00,meteohub,2013-06-28 16:42:00,
2013-06-28 12:47:00,84.2,65.3,29.54,SW,233,9.0,17.0,53,0.00,,,0.00,meteohub,2013-06-28 16:47:00,
2013-06-28 12:52:00,84.7,63.0,29.54,WNW,293,9.0,17.0,48,0.00,,,0.00,meteohub,2013-06-28 16:52:00,
2013-06-28 12:57:00,84.4,65.3,29.54,West,271,5.0,15.0,53,0.00,,,0.00,meteohub,2013-06-28 16:57:00,
2013-06-28 13:02:00,84.0,66.2,29.53,West,269,2.0,14.0,55,0.00,,,0.00,meteohub,2013-06-28 17:02:00,
2013-06-28 13:07:00,84.9,64.8,29.53,NW,326,6.0,14.0,51,0.00,,,0.00,meteohub,2013-06-28 17:07:00,
2013-06-28 13:17:00,84.6,62.8,29.53,WSW,248,6.0,16.0,48,0.00,,,0.00,meteohub,2013-06-28 17:17:00,
2013-06-28 13:22:00,84.9,63.7,29.53,WNW,287,8.0,16.0,49,0.00,,,0.00,meteohub,2013-06-28 17:22:00,
2013-06-28 13:27:00,85.1,63.9,29.52,WSW,249,16.0,16.0,49,0.00,,,0.00,meteohub,2013-06-28 17:27:00,
2013-06-28 13:32:00,85.5,63.0,29.53,NW,324,10.0,17.0,47,0.00,,,0.00,meteohub,2013-06-28 17:32:00,
2013-06-28 13:37:00,85.5,64.8,29.52,WNW,293,5.0,17.0,50,0.00,,,0.00,meteohub,2013-06-28 17:37:00,
2013-06-28 13:42:00,85.1,64.9,29.52,WNW,287,6.0,17.0,51,0.00,,,0.00,meteohub,2013-06-28 17:42:00,
2013-06-28 13:47:00,85.1,64.9,29.52,NNW,335,5.0,14.0,51,0.00,,,0.00,meteohub,2013-06-28 17:47:00,
2013-06-28 13:52:00,85.1,64.4,29.52,NW,316,7.0,14.0,50,0.00,,,0.00,meteohub,2013-06-28 17:52:00,
2013-06-28 13:57:00,85.5,63.0,29.52,WNW,285,8.0,19.0,47,0.00,,,0.00,meteohub,2013-06-28 17:57:00,
2013-06-28 14:02:00,85.6,65.5,29.52,WNW,283,11.0,19.0,51,0.00,,,0.00,meteohub,2013-06-28 18:02:00,
2013-06-28 14:07:00,84.7,63.0,29.52,NW,323,3.0,16.0,48,0.00,,,0.00,meteohub,2013-06-28 18:07:00,
2013-06-28 14:12:00,84.9,63.0,29.51,WSW,250,8.0,16.0,48,0.00,,,0.00,meteohub,2013-06-28 18:12:00,
2013-06-28 14:17:00,85.1,64.9,29.51,NNW,331,8.0,16.0,51,0.00,,,0.00,meteohub,2013-06-28 18:17:00,
2013-06-28 14:22:00,85.1,62.6,29.51,West,263,12.0,16.0,47,0.00,,,0.00,meteohub,2013-06-28 18:22:00,
2013-06-28 14:27:00,85.3,63.3,29.51,West,277,8.0,16.0,48,0.00,,,0.00,meteohub,2013-06-28 18:27:00,
2013-06-28 14:32:00,84.9,62.4,29.50,WSW,238,9.0,15.0,47,0.00,,,0.00,meteohub,2013-06-28 18:32:00,
2013-06-28 14:37:00,85.3,62.8,29.50,NNW,328,8.0,16.0,47,0.00,,,0.00,meteohub,2013-06-28 18:37:00,
2013-06-28 14:42:00,85.1,63.1,29.50,NW,326,9.0,16.0,48,0.00,,,0.00,meteohub,2013-06-28 18:42:00,
2013-06-28 14:47:00,85.5,65.3,29.50,NW,311,10.0,13.0,51,0.00,,,0.00,meteohub,2013-06-28 18:47:00,
2013-06-28 14:52:00,86.0,64.6,29.50,NNW,332,4.0,13.0,49,0.00,,,0.00,meteohub,2013-06-28 18:52:00,
2013-06-28 14:57:00,85.3,62.2,29.50,West,271,8.0,16.0,46,0.00,,,0.00,meteohub,2013-06-28 18:57:00,
2013-06-28 15:02:00,85.5,62.2,29.50,WNW,285,9.0,17.0,46,0.00,,,0.00,meteohub,2013-06-28 19:02:00,
2013-06-28 15:07:00,85.8,63.9,29.49,SSW,212,10.0,17.0,48,0.00,,,0.00,meteohub,2013-06-28 19:07:00,
2013-06-28 15:12:00,85.5,63.0,29.49,WNW,284,8.0,17.0,47,0.00,,,0.00,meteohub,2013-06-28 19:12:00,
2013-06-28 15:17:00,85.3,62.2,29.49,WSW,248,14.0,15.0,46,0.00,,,0.00,meteohub,2013-06-28 19:17:00,
2013-06-28 15:22:00,84.9,61.2,29.49,West,274,7.0,15.0,45,0.00,,,0.00,meteohub,2013-06-28 19:22:00,
2013-06-28 15:27:00,85.5,63.5,29.49,North,8,6.0,17.0,48,0.00,,,0.00,meteohub,2013-06-28 19:27:00,
2013-06-28 15:32:00,85.3,62.2,29.49,West,271,8.0,17.0,46,0.00,,,0.00,meteohub,2013-06-28 19:32:00,
2013-06-28 15:42:00,85.6,61.2,29.49,WSW,250,8.0,15.0,44,0.00,,,0.00,meteohub,2013-06-28 19:42:00,
2013-06-28 15:47:00,85.6,61.9,29.49,WNW,289,14.0,15.0,45,0.00,,,0.00,meteohub,2013-06-28 19:47:00,
2013-06-28 15:52:00,85.6,60.6,29.49,NW,307,11.0,17.0,43,0.00,,,0.00,meteohub,2013-06-28 19:52:00,
2013-06-28 15:57:00,85.8,62.6,29.48,WNW,287,7.0,17.0,46,0.00,,,0.00,meteohub,2013-06-28 19:57:00,
2013-06-28 16:02:00,86.0,62.2,29.48,West,270,14.0,17.0,45,0.00,,,0.00,meteohub,2013-06-28 20:02:00,
2013-06-28 16:12:00,85.5,61.0,29.48,WNW,285,9.0,16.0,44,0.00,,,0.00,meteohub,2013-06-28 20:12:00,
2013-06-28 16:17:00,85.5,60.4,29.48,WNW,288,4.0,18.0,43,0.00,,,0.00,meteohub,2013-06-28 20:17:00,
2013-06-28 16:22:00,85.6,61.2,29.48,West,274,8.0,18.0,44,0.00,,,0.00,meteohub,2013-06-28 20:22:00,
2013-06-28 16:27:00,85.8,60.8,29.48,WNW,293,6.0,18.0,43,0.00,,,0.00,meteohub,2013-06-28 20:27:00,
2013-06-28 16:32:00,86.0,62.8,29.47,NNW,328,4.0,17.0,46,0.00,,,0.00,meteohub,2013-06-28 20:32:00,
2013-06-28 16:37:00,85.6,62.4,29.47,NNW,329,6.0,17.0,46,0.00,,,0.00,meteohub,2013-06-28 20:37:00,
2013-06-28 16:42:00,86.2,63.5,29.47,WSW,240,8.0,15.0,47,0.00,,,0.00,meteohub,2013-06-28 20:42:00,
2013-06-28 16:47:00,86.4,60.6,29.47,West,274,9.0,15.0,42,0.00,,,0.00,meteohub,2013-06-28 20:47:00,
2013-06-28 16:52:00,86.4,60.6,29.47,West,269,3.0,15.0,42,0.00,,,0.00,meteohub,2013-06-28 20:52:00,
2013-06-28 16:57:00,86.2,61.0,29.47,West,274,13.0,13.0,43,0.00,,,0.00,meteohub,2013-06-28 20:57:00,
2013-06-28 17:02:00,85.8,61.3,29.47,NW,315,5.0,13.0,44,0.00,,,0.00,meteohub,2013-06-28 21:02:00,
2013-06-28 17:07:00,85.6,62.4,29.47,SW,219,10.0,13.0,46,0.00,,,0.00,meteohub,2013-06-28 21:07:00,
2013-06-28 17:12:00,85.8,60.8,29.47,West,276,8.0,14.0,43,0.00,,,0.00,meteohub,2013-06-28 21:12:00,
2013-06-28 17:17:00,85.5,63.0,29.47,WNW,294,3.0,14.0,47,0.00,,,0.00,meteohub,2013-06-28 21:17:00,
2013-06-28 17:22:00,84.9,61.2,29.47,WNW,288,5.0,14.0,45,0.00,,,0.00,meteohub,2013-06-28 21:22:00,
2013-06-28 17:27:00,84.6,62.1,29.47,WNW,287,5.0,12.0,47,0.00,,,0.00,meteohub,2013-06-28 21:27:00,
2013-06-28 17:32:00,84.0,62.8,29.47,West,276,2.0,9.0,49,0.00,,,0.00,meteohub,2013-06-28 21:32:00,
2013-06-28 17:37:00,83.8,63.1,29.48,WNW,295,3.0,8.0,50,0.00,,,0.00,meteohub,2013-06-28 21:37:00,
2013-06-28 17:42:00,83.1,64.8,29.50,WNW,283,3.0,8.0,54,0.00,,,0.00,meteohub,2013-06-28 21:42:00,
2013-06-28 17:47:00,75.0,63.3,29.51,NNW,342,11.0,35.0,67,0.00,,,0.00,meteohub,2013-06-28 21:47:00,
2013-06-28 17:52:00,71.2,64.0,29.51,North,349,11.0,35.0,78,0.00,,,0.00,meteohub,2013-06-28 21:52:00,
2013-06-28 17:57:00,69.8,63.7,29.50,NNW,345,6.0,35.0,81,0.00,,,0.00,meteohub,2013-06-28 21:57:00,
2013-06-28 18:02:00,69.6,63.5,29.50,NNW,329,2.0,27.0,81,0.00,,,0.00,meteohub,2013-06-28 22:02:00,
2013-06-28 18:07:00,69.6,63.5,29.51,North,349,0.0,18.0,81,0.00,,,0.00,meteohub,2013-06-28 22:07:00,
2013-06-28 18:12:00,70.0,63.9,29.52,NE,41,3.0,11.0,81,0.00,,,0.00,meteohub,2013-06-28 22:12:00,
2013-06-28 18:17:00,70.2,63.7,29.52,East,79,2.0,8.0,80,0.00,,,0.00,meteohub,2013-06-28 22:17:00,
2013-06-28 18:22:00,70.2,64.0,29.52,NW,324,2.0,8.0,81,0.00,,,0.00,meteohub,2013-06-28 22:22:00,
2013-06-28 18:27:00,70.2,64.4,29.52,North,4,1.0,10.0,82,0.00,,,0.00,meteohub,2013-06-28 22:27:00,
2013-06-28 18:32:00,70.5,64.4,29.52,West,277,3.0,10.0,81,0.00,,,0.00,meteohub,2013-06-28 22:32:00,
2013-06-28 18:37:00,70.7,64.2,29.53,West,272,3.0,5.0,80,0.00,,,0.00,meteohub,2013-06-28 22:37:00,
2013-06-28 18:42:00,70.9,64.4,29.52,NW,318,2.0,7.0,80,0.00,,,0.00,meteohub,2013-06-28 22:42:00,
2013-06-28 18:47:00,71.2,64.8,29.52,North,8,1.0,7.0,80,0.00,,,0.00,meteohub,2013-06-28 22:47:00,
2013-06-28 18:52:00,72.0,65.5,29.52,NE,47,1.0,5.0,80,0.00,,,0.00,meteohub,2013-06-28 22:52:00,
2013-06-28 18:57:00,72.0,64.0,29.51,WNW,290,0.0,3.0,76,0.00,,,0.00,meteohub,2013-06-28 22:57:00,
2013-06-28 19:02:00,72.1,64.9,29.50,ENE,69,2.0,3.0,78,0.00,,,0.00,meteohub,2013-06-28 23:02:00,
2013-06-28 19:07:00,72.5,64.9,29.50,ENE,62,0.0,4.0,77,0.00,,,0.00,meteohub,2013-06-28 23:07:00,
2013-06-28 19:12:00,73.6,65.5,29.50,NE,49,0.0,4.0,76,0.00,,,0.00,meteohub,2013-06-28 23:12:00,
2013-06-28 19:17:00,73.8,64.6,29.50,SSE,159,0.0,4.0,73,0.00,,,0.00,meteohub,2013-06-28 23:17:00,
2013-06-28 19:22:00,73.0,64.6,29.50,South,186,5.0,5.0,75,0.00,,,0.00,meteohub,2013-06-28 23:22:00,
2013-06-28 19:27:00,72.7,64.8,29.50,SSW,212,3.0,5.0,76,0.00,,,0.00,meteohub,2013-06-28 23:27:00,
2013-06-28 19:32:00,72.1,64.9,29.52,NNW,328,1.0,5.0,78,0.00,,,0.00,meteohub,2013-06-28 23:32:00,
2013-06-28 19:37:00,72.0,66.2,29.52,NE,41,2.0,12.0,82,0.00,,,0.00,meteohub,2013-06-28 23:37:00,
2013-06-28 19:42:00,71.1,64.9,29.49,ESE,112,4.0,12.0,81,0.05,,,0.05,meteohub,2013-06-28 23:42:00,
2013-06-28 19:47:00,70.2,64.8,29.50,SSW,208,0.0,12.0,83,0.06,,,0.06,meteohub,2013-06-28 23:47:00,
2013-06-28 19:52:00,69.8,65.1,29.50,SSE,148,0.0,10.0,85,0.06,,,0.06,meteohub,2013-06-28 23:52:00,
2013-06-28 19:57:00,70.0,66.2,29.52,North,351,6.0,10.0,88,0.06,,,0.06,meteohub,2013-06-28 23:57:00,
2013-06-28 20:02:00,69.6,66.2,29.50,SSE,150,3.0,7.0,89,0.06,,,0.06,meteohub,2013-06-29 00:02:00,
2013-06-28 20:07:00,69.4,66.0,29.50,SSE,163,2.0,7.0,89,0.06,,,0.06,meteohub,2013-06-29 00:07:00,
2013-06-28 20:12:00,69.4,65.7,29.50,SSE,162,3.0,7.0,88,0.06,,,0.06,meteohub,2013-06-29 00:12:00,
2013-06-28 20:17:00,69.4,65.7,29.51,NE,36,3.0,5.0,88,0.06,,,0.06,meteohub,2013-06-29 00:17:00,
2013-06-28 20:22:00,69.3,65.8,29.51,West,269,1.0,4.0,89,0.06,,,0.06,meteohub,2013-06-29 00:22:00,
2013-06-28 20:27:00,69.3,66.2,29.51,SSE,167,3.0,3.0,90,0.06,,,0.06,meteohub,2013-06-29 00:27:00,
2013-06-28 20:32:00,68.7,65.7,29.51,SSE,147,0.0,4.0,90,0.06,,,0.06,meteohub,2013-06-29 00:32:00,
2013-06-28 20:37:00,68.4,65.3,29.51,SE,146,0.0,4.0,90,0.06,,,0.06,meteohub,2013-06-29 00:37:00,
2013-06-28 20:42:00,68.5,66.2,29.51,NE,56,0.0,4.0,92,0.00,,,0.06,meteohub,2013-06-29 00:42:00,
2013-06-28 20:47:00,68.4,65.7,29.51,SSE,158,0.0,3.0,91,0.00,,,0.06,meteohub,2013-06-29 00:47:00,
2013-06-28 20:52:00,68.2,65.8,29.51,WSW,250,1.0,3.0,92,0.00,,,0.06,meteohub,2013-06-29 00:52:00,
2013-06-28 20:57:00,68.0,65.8,29.52,North,351,5.0,5.0,93,0.00,,,0.06,meteohub,2013-06-29 00:57:00,
2013-06-28 21:02:00,67.8,65.7,29.52,NE,34,2.0,6.0,93,0.00,,,0.06,meteohub,2013-06-29 01:02:00,
2013-06-28 21:07:00,67.5,65.3,29.50,SSE,162,4.0,6.0,93,0.00,,,0.06,meteohub,2013-06-29 01:07:00,
2013-06-28 21:12:00,67.3,65.1,29.50,South,191,0.0,6.0,93,0.00,,,0.06,meteohub,2013-06-29 01:12:00,
2013-06-28 21:17:00,67.3,65.5,29.51,SE,136,1.0,5.0,94,0.00,,,0.06,meteohub,2013-06-29 01:17:00,
2013-06-28 21:22:00,66.9,65.1,29.51,SSE,160,4.0,5.0,94,0.00,,,0.06,meteohub,2013-06-29 01:22:00,
2013-06-28 21:27:00,66.7,64.9,29.51,SSE,156,2.0,4.0,94,0.00,,,0.06,meteohub,2013-06-29 01:27:00,
2013-06-28 21:32:00,66.6,64.4,29.51,SSE,149,2.0,4.0,93,0.00,,,0.06,meteohub,2013-06-29 01:32:00,
2013-06-28 21:37:00,66.4,64.6,29.52,South,172,3.0,4.0,94,0.00,,,0.06,meteohub,2013-06-29 01:37:00,
2013-06-28 21:42:00,66.0,64.2,29.52,SE,145,0.0,4.0,94,0.00,,,0.06,meteohub,2013-06-29 01:42:00,
2013-06-28 21:47:00,65.8,64.0,29.52,SSE,152,3.0,4.0,94,0.00,,,0.06,meteohub,2013-06-29 01:47:00,
2013-06-28 21:52:00,65.7,63.9,29.52,SSE,156,2.0,4.0,94,0.00,,,0.06,meteohub,2013-06-29 01:52:00,
2013-06-28 21:57:00,65.7,63.9,29.52,SSE,153,1.0,3.0,94,0.00,,,0.06,meteohub,2013-06-29 01:57:00,
2013-06-28 22:02:00,65.7,64.2,29.52,SSE,149,0.0,3.0,95,0.00,,,0.06,meteohub,2013-06-29 02:02:00,
2013-06-28 22:07:00,65.5,64.0,29.52,SE,143,1.0,3.0,95,0.00,,,0.06,meteohub,2013-06-29 02:07:00,
2013-06-28 22:12:00,65.5,64.0,29.52,SE,142,1.0,3.0,95,0.00,,,0.06,meteohub,2013-06-29 02:12:00,
2013-06-28 22:17:00,65.5,64.0,29.52,SSE,158,0.0,2.0,95,0.00,,,0.06,meteohub,2013-06-29 02:17:00,
2013-06-28 22:22:00,65.3,63.9,29.52,SE,141,0.0,2.0,95,0.00,,,0.06,meteohub,2013-06-29 02:22:00,
2013-06-28 22:27:00,65.5,64.2,29.52,ESE,116,2.0,2.0,96,0.00,,,0.06,meteohub,2013-06-29 02:27:00,
2013-06-28 22:32:00,65.5,64.2,29.52,SE,127,0.0,2.0,96,0.00,,,0.06,meteohub,2013-06-29 02:32:00,
2013-06-28 22:37:00,65.3,63.9,29.52,SE,127,0.0,2.0,95,0.00,,,0.06,meteohub,2013-06-29 02:37:00,
2013-06-28 22:42:00,65.1,63.7,29.52,SE,133,0.0,2.0,95,0.00,,,0.06,meteohub,2013-06-29 02:42:00,
2013-06-28 22:47:00,65.1,63.7,29.52,SSE,155,2.0,2.0,95,0.00,,,0.06,meteohub,2013-06-29 02:47:00,
2013-06-28 22:52:00,64.9,63.5,29.52,SSE,155,1.0,2.0,95,0.00,,,0.06,meteohub,2013-06-29 02:52:00,
2013-06-28 22:57:00,64.8,63.7,29.52,SE,129,1.0,2.0,96,0.00,,,0.06,meteohub,2013-06-29 02:57:00,
2013-06-28 23:02:00,64.8,63.7,29.53,SSW,211,2.0,2.0,96,0.00,,,0.06,meteohub,2013-06-29 03:02:00,
2013-06-28 23:07:00,64.6,63.5,29.52,NE,43,2.0,3.0,96,0.00,,,0.06,meteohub,2013-06-29 03:07:00,
2013-06-28 23:12:00,64.9,63.9,29.52,South,170,0.0,4.0,96,0.00,,,0.06,meteohub,2013-06-29 03:12:00,
2013-06-28 23:17:00,64.8,63.7,29.52,South,170,0.0,4.0,96,0.00,,,0.06,meteohub,2013-06-29 03:17:00,
2013-06-28 23:22:00,64.8,63.7,29.55,NW,318,1.0,4.0,96,0.00,,,0.06,meteohub,2013-06-29 03:22:00,
2013-06-28 23:27:00,64.9,63.9,29.54,West,271,3.0,12.0,96,0.00,,,0.06,meteohub,2013-06-29 03:27:00,
2013-06-28 23:32:00,66.0,64.6,29.54,NE,54,2.0,12.0,95,0.00,,,0.06,meteohub,2013-06-29 03:32:00,
2013-06-28 23:37:00,66.2,64.4,29.53,SE,132,3.0,12.0,94,0.00,,,0.06,meteohub,2013-06-29 03:37:00,
2013-06-28 23:42:00,66.4,64.6,29.53,SSE,153,3.0,7.0,94,0.00,,,0.06,meteohub,2013-06-29 03:42:00,
2013-06-28 23:47:00,66.4,64.2,29.53,WSW,243,3.0,6.0,93,0.00,,,0.06,meteohub,2013-06-29 03:47:00,
2013-06-28 23:52:00,66.6,63.9,29.53,WSW,246,2.0,4.0,91,0.00,,,0.06,meteohub,2013-06-29 03:52:00,
2013-06-28 23:57:00,66.7,63.7,29.52,SSW,208,1.0,5.0,90,0.00,,,0.06,meteohub,2013-06-29 03:57:00,